createdAt,value
2023-01-27T00:00:41.352Z,34.00
2023-01-27T00:03:11.119Z,34.50
2023-01-27T00:05:40.678Z,32.25
2023-01-27T00:08:08.714Z,32.00
2023-01-27T00:10:36.645Z,32.00
2023-01-27T00:13:22.099Z,33.50
2023-01-27T00:15:50.059Z,32.50
2023-01-27T00:18:17.963Z,32.00
2023-01-27T00:21:05.063Z,30.00
2023-01-27T00:23:50.877Z,31.50
2023-01-27T00:26:19.536Z,30.00
2023-01-27T00:28:47.883Z,29.25
2023-01-27T00:31:33.943Z,27.75
2023-01-27T00:34:09.715Z,30.25
2023-01-27T00:36:40.174Z,28.25
2023-01-27T00:39:08.406Z,27.25
2023-01-27T00:41:36.317Z,26.00
2023-01-27T00:44:05.593Z,26.00
2023-01-27T00:46:33.635Z,26.25
2023-01-27T00:49:01.622Z,23.00
2023-01-27T00:51:29.542Z,24.25
2023-01-27T00:53:59.868Z,26.00
2023-01-27T00:56:28.173Z,23.50
2023-01-27T00:58:56.129Z,23.75
2023-01-27T01:01:24.083Z,22.25
2023-01-27T01:03:52.324Z,21.00
2023-01-27T01:06:20.273Z,20.00
2023-01-27T01:08:48.533Z,22.00
2023-01-27T01:11:17.965Z,21.75
2023-01-27T01:13:45.947Z,24.25
2023-01-27T01:16:15.206Z,18.00
2023-01-27T01:18:43.113Z,20.75
2023-01-27T01:21:11.114Z,17.50
2023-01-27T01:23:39.527Z,19.25
2023-01-27T01:26:07.702Z,18.75
2023-01-27T01:28:37.043Z,19.75
2023-01-27T01:31:10.735Z,17.50
2023-01-27T01:33:38.790Z,19.00
2023-01-27T01:36:07.822Z,18.00
2023-01-27T01:38:35.767Z,17.00
2023-01-27T01:41:03.690Z,18.25
2023-01-27T01:43:31.595Z,17.25
2023-01-27T01:46:01.570Z,16.00
2023-01-27T01:48:34.414Z,14.75
2023-01-27T01:51:05.237Z,16.25
2023-01-27T01:53:34.784Z,15.25
2023-01-27T01:56:06.704Z,16.50
2023-01-27T01:58:34.900Z,16.50
2023-01-27T02:01:05.411Z,15.00
2023-01-27T02:03:33.734Z,14.00
2023-01-27T02:06:01.933Z,15.00
2023-01-27T02:08:31.051Z,14.00
2023-01-27T02:10:58.945Z,14.00
2023-01-27T02:13:26.857Z,13.00
2023-01-27T02:15:55.817Z,14.75
2023-01-27T02:18:25.091Z,14.00
2023-01-27T02:20:54.171Z,14.00
2023-01-27T02:23:39.784Z,12.00
2023-01-27T02:26:11.076Z,13.00
2023-01-27T02:28:38.987Z,11.00
2023-01-27T02:31:06.967Z,12.00
2023-01-27T02:33:34.950Z,14.00
2023-01-27T02:36:04.782Z,11.00
2023-01-27T02:38:35.274Z,11.75
2023-01-27T02:41:05.630Z,11.00
2023-01-27T02:43:34.956Z,10.25
2023-01-27T02:46:02.896Z,11.50
2023-01-27T02:48:30.787Z,10.00
2023-01-27T02:50:58.687Z,10.00
2023-01-27T02:53:26.653Z,10.50
2023-01-27T02:55:54.820Z,12.75
2023-01-27T02:58:22.716Z,10.00
2023-01-27T03:00:51.968Z,10.25
2023-01-27T03:03:19.904Z,8.75
2023-01-27T03:05:51.496Z,9.50
2023-01-27T03:08:19.406Z,9.00
2023-01-27T03:10:55.842Z,10.50
2023-01-27T03:13:23.818Z,9.75
2023-01-27T03:16:13.459Z,8.75
2023-01-27T03:18:47.305Z,9.00
2023-01-27T03:21:15.236Z,10.00
2023-01-27T03:23:43.520Z,9.00
2023-01-27T03:26:11.782Z,10.00
2023-01-27T03:28:39.685Z,8.75
2023-01-27T03:31:09.898Z,8.00
2023-01-27T03:33:43.061Z,9.00
2023-01-27T03:36:28.172Z,8.00
2023-01-27T03:39:13.398Z,7.00
2023-01-27T03:41:59.055Z,8.50
2023-01-27T03:44:44.081Z,7.00
2023-01-27T03:47:13.324Z,8.00
2023-01-27T03:49:41.234Z,7.25
2023-01-27T03:52:09.151Z,6.25
2023-01-27T03:54:37.415Z,7.00
2023-01-27T03:57:06.374Z,7.00
2023-01-27T03:59:35.103Z,6.25
2023-01-27T04:02:20.941Z,6.50
2023-01-27T04:05:07.542Z,6.25
2023-01-27T04:07:36.061Z,6.00
2023-01-27T04:10:04.219Z,6.00
2023-01-27T04:12:31.221Z,7.50
2023-01-27T04:14:59.405Z,6.50
2023-01-27T04:17:27.382Z,6.50
2023-01-27T04:19:57.266Z,7.00
2023-01-27T04:22:25.162Z,6.00
2023-01-27T04:24:53.334Z,6.75
2023-01-27T04:27:21.327Z,6.50
2023-01-27T04:29:49.239Z,5.75
2023-01-27T04:32:17.076Z,5.75
2023-01-27T04:34:45.239Z,5.25
2023-01-27T04:37:14.686Z,5.00
2023-01-27T04:39:42.542Z,5.00
2023-01-27T04:42:10.456Z,5.00
2023-01-27T04:44:38.613Z,5.00
2023-01-27T04:47:06.597Z,5.00
2023-01-27T04:49:34.523Z,5.00
2023-01-27T04:52:02.419Z,5.75
2023-01-27T04:54:32.159Z,6.00
2023-01-27T04:57:00.852Z,4.75
2023-01-27T04:59:28.823Z,5.00
2023-01-27T05:01:56.755Z,5.00
2023-01-27T05:04:26.305Z,6.00
2023-01-27T05:06:54.409Z,4.00
2023-01-27T05:09:22.409Z,4.75
2023-01-27T05:11:51.692Z,5.00
2023-01-27T05:14:20.078Z,4.00
2023-01-27T05:16:48.038Z,4.00
2023-01-27T05:19:16.282Z,5.00
2023-01-27T05:21:44.510Z,4.00
2023-01-27T05:24:12.863Z,4.00
2023-01-27T05:26:40.743Z,4.00
2023-01-27T05:29:10.282Z,4.00
2023-01-27T05:31:38.390Z,5.00
2023-01-27T05:34:06.649Z,4.00
2023-01-27T05:36:34.570Z,5.75
2023-01-27T05:39:02.456Z,5.50
2023-01-27T05:41:31.053Z,6.00
2023-01-27T05:43:59.242Z,6.50
2023-01-27T05:46:29.320Z,8.00
2023-01-27T05:48:58.465Z,9.75
2023-01-27T05:51:26.762Z,9.50
2023-01-27T05:53:55.755Z,10.25
2023-01-27T05:56:24.048Z,11.25
2023-01-27T05:58:51.975Z,13.50
2023-01-27T06:01:21.221Z,12.00
2023-01-27T06:03:50.842Z,13.75
2023-01-27T06:06:19.766Z,14.00
2023-01-27T06:08:47.856Z,16.25
2023-01-27T06:11:16.189Z,14.00
2023-01-27T06:13:44.515Z,15.25
2023-01-27T06:16:13.703Z,16.50
2023-01-27T06:18:41.738Z,15.00
2023-01-27T06:21:11.655Z,15.00
2023-01-27T06:23:39.962Z,15.00
2023-01-27T06:26:09.347Z,16.00
2023-01-27T06:28:37.287Z,15.75
2023-01-27T06:31:08.610Z,13.75
2023-01-27T06:33:36.540Z,16.00
2023-01-27T06:36:06.172Z,15.00
2023-01-27T06:38:35.483Z,14.00
2023-01-27T06:41:03.447Z,15.50
2023-01-27T06:43:31.364Z,14.75
2023-01-27T06:45:59.538Z,14.00
2023-01-27T06:48:27.730Z,13.75
2023-01-27T06:50:55.790Z,15.00
2023-01-27T06:53:23.653Z,14.50
2023-01-27T06:55:57.732Z,13.50
2023-01-27T06:58:25.662Z,14.50
2023-01-27T07:00:53.596Z,13.00
2023-01-27T07:03:21.481Z,12.75
2023-01-27T07:05:49.721Z,12.00
2023-01-27T07:08:17.589Z,13.75
2023-01-27T07:10:45.533Z,10.50
2023-01-27T07:13:15.007Z,12.00
2023-01-27T07:15:43.267Z,11.25
2023-01-27T07:18:11.303Z,11.75
2023-01-27T07:20:39.206Z,11.00
2023-01-27T07:23:07.303Z,10.75
2023-01-27T07:25:35.716Z,12.00
2023-01-27T07:28:03.763Z,12.25
2023-01-27T07:30:33.857Z,12.00
2023-01-27T07:33:04.860Z,10.75
2023-01-27T07:35:33.025Z,11.00
2023-01-27T07:38:00.963Z,10.75
2023-01-27T07:40:28.991Z,11.00
2023-01-27T07:42:59.401Z,10.75
2023-01-27T07:45:27.295Z,10.00
2023-01-27T07:48:01.495Z,9.25
2023-01-27T07:50:29.436Z,10.00
2023-01-27T07:53:00.137Z,9.50
2023-01-27T07:55:28.372Z,9.00
2023-01-27T07:57:56.301Z,9.00
2023-01-27T08:00:24.864Z,10.00
2023-01-27T08:02:52.913Z,9.75
2023-01-27T08:05:22.721Z,8.50
2023-01-27T08:07:50.643Z,9.00
2023-01-27T08:10:18.837Z,8.75
2023-01-27T08:12:46.753Z,7.00
2023-01-27T08:15:18.707Z,8.50
2023-01-27T08:17:53.825Z,7.50
2023-01-27T08:20:23.196Z,7.50
2023-01-27T08:22:51.189Z,7.25
2023-01-27T08:25:19.410Z,9.00
2023-01-27T08:27:49.955Z,7.50
2023-01-27T08:30:18.655Z,7.75
2023-01-27T08:32:46.556Z,5.75
2023-01-27T08:35:14.715Z,8.00
2023-01-27T08:37:43.994Z,7.75
2023-01-27T08:40:13.463Z,7.00
2023-01-27T08:42:41.563Z,8.00
2023-01-27T08:45:11.131Z,6.25
2023-01-27T08:47:39.081Z,7.00
2023-01-27T08:50:07.632Z,6.00
2023-01-27T08:52:35.510Z,8.00
2023-01-27T08:55:05.505Z,7.50
2023-01-27T08:57:35.234Z,6.00
2023-01-27T09:00:06.310Z,7.00
2023-01-27T09:02:34.237Z,5.00
2023-01-27T09:05:02.452Z,6.75
2023-01-27T09:07:30.337Z,6.00
2023-01-27T09:10:12.707Z,5.50
2023-01-27T09:12:43.470Z,7.75
2023-01-27T09:15:12.314Z,6.00
2023-01-27T09:17:40.204Z,5.00
2023-01-27T09:20:09.253Z,5.00
2023-01-27T09:22:37.720Z,6.00
2023-01-27T09:25:06.452Z,6.50
2023-01-27T09:27:39.582Z,6.00
2023-01-27T09:30:12.729Z,5.25
2023-01-27T09:32:40.864Z,5.25
2023-01-27T09:35:09.913Z,6.25
2023-01-27T09:37:40.689Z,4.50
2023-01-27T09:40:13.606Z,6.00
2023-01-27T09:42:57.297Z,6.00
2023-01-27T09:45:33.221Z,6.00
2023-01-27T09:48:11.364Z,5.50
2023-01-27T09:50:43.498Z,5.00
2023-01-27T09:53:41.359Z,5.00
2023-01-27T09:56:12.326Z,5.00
2023-01-27T09:58:48.590Z,4.50
2023-01-27T10:01:20.095Z,5.75
2023-01-27T10:03:59.958Z,5.00
2023-01-27T10:06:46.617Z,5.50
2023-01-27T10:09:35.129Z,5.00
2023-01-27T10:12:07.034Z,4.25
2023-01-27T10:14:37.636Z,5.00
2023-01-27T10:17:14.341Z,5.25
2023-01-27T10:19:50.282Z,6.00
2023-01-27T10:22:21.167Z,5.50
2023-01-27T10:24:58.286Z,5.00
2023-01-27T10:27:26.974Z,5.00
2023-01-27T10:29:58.509Z,6.25
2023-01-27T10:32:29.064Z,5.25
2023-01-27T10:35:05.292Z,6.00
2023-01-27T10:37:36.237Z,5.00
2023-01-27T10:40:07.109Z,4.00
2023-01-27T10:42:37.387Z,4.25
2023-01-27T10:45:17.625Z,5.75
2023-01-27T10:47:56.312Z,4.00
2023-01-27T10:50:26.532Z,5.50
2023-01-27T10:52:56.502Z,5.25
2023-01-27T10:55:26.124Z,5.00
2023-01-27T10:57:56.361Z,4.00
2023-01-27T11:03:23.311Z,5.00
2023-01-27T11:05:53.453Z,5.25
2023-01-27T11:08:23.001Z,5.00
2023-01-27T11:11:10.066Z,5.25
2023-01-27T11:13:38.259Z,5.75
2023-01-27T11:16:06.858Z,5.25
2023-01-27T11:18:37.327Z,4.50
2023-01-27T11:21:06.507Z,4.50
2023-01-27T11:23:35.593Z,5.00
2023-01-27T11:26:08.033Z,5.00
2023-01-27T11:28:38.776Z,5.50
2023-01-27T11:31:10.698Z,4.00
2023-01-27T11:33:51.740Z,3.75
2023-01-27T11:36:19.682Z,4.50
2023-01-27T11:38:47.830Z,4.00
2023-01-27T11:41:15.722Z,5.00
2023-01-27T11:43:43.683Z,5.00
2023-01-27T11:46:13.629Z,4.00
2023-01-27T11:48:44.318Z,4.00
2023-01-27T11:51:19.995Z,5.00
2023-01-27T11:53:47.953Z,4.00
2023-01-27T11:56:18.798Z,4.75
2023-01-27T11:58:49.049Z,4.00
2023-01-27T12:01:18.762Z,3.25
2023-01-27T12:03:51.459Z,5.50
2023-01-27T12:06:25.014Z,5.50
2023-01-27T12:08:52.913Z,5.00
2023-01-27T12:11:24.892Z,4.25
2023-01-27T12:13:54.804Z,4.25
2023-01-27T12:16:22.983Z,4.75
2023-01-27T12:18:57.496Z,3.00
2023-01-27T12:21:36.234Z,4.00
2023-01-27T12:24:04.357Z,4.00
2023-01-27T12:26:36.497Z,4.25
2023-01-27T12:29:06.417Z,4.75
2023-01-27T12:31:34.648Z,4.00
2023-01-27T12:34:05.698Z,3.75
2023-01-27T12:36:37.990Z,4.25
2023-01-27T12:39:07.697Z,4.00
2023-01-27T12:41:36.872Z,4.25
2023-01-27T12:44:10.073Z,4.25
2023-01-27T12:46:38.035Z,3.00
2023-01-27T12:49:10.994Z,4.75
2023-01-27T12:51:41.119Z,3.25
2023-01-27T12:54:16.804Z,3.25
2023-01-27T12:56:44.707Z,3.25
2023-01-27T12:59:14.328Z,4.00
2023-01-27T13:01:44.102Z,4.00
2023-01-27T13:04:15.740Z,4.00
2023-01-27T13:06:44.349Z,4.25
2023-01-27T13:09:24.873Z,4.00
2023-01-27T13:11:52.757Z,4.00
2023-01-27T13:14:21.044Z,4.00
2023-01-27T13:16:53.111Z,4.75
2023-01-27T13:19:33.232Z,4.00
2023-01-27T13:22:01.175Z,4.00
2023-01-27T13:24:33.158Z,4.75
2023-01-27T13:27:02.100Z,5.00
2023-01-27T13:29:32.036Z,4.75
2023-01-27T13:32:03.155Z,5.00
2023-01-27T13:34:36.913Z,5.25
2023-01-27T13:37:09.150Z,4.00
2023-01-27T13:39:46.447Z,4.00
2023-01-27T13:42:16.429Z,5.75
2023-01-27T13:44:46.474Z,5.00
2023-01-27T13:47:17.315Z,4.00
2023-01-27T13:49:47.874Z,5.00
2023-01-27T13:52:15.705Z,5.00
2023-01-27T13:54:43.865Z,5.00
2023-01-27T13:57:45.028Z,4.50
2023-01-27T14:00:16.953Z,4.75
2023-01-27T14:03:08.732Z,4.50
2023-01-27T14:05:45.298Z,5.50
2023-01-27T14:08:21.087Z,5.00
2023-01-27T14:11:01.507Z,5.00
2023-01-27T14:13:36.918Z,4.50
2023-01-27T14:16:07.949Z,5.00
2023-01-27T14:18:36.542Z,6.00
2023-01-27T14:21:14.441Z,5.00
2023-01-27T14:23:46.080Z,5.00
2023-01-27T14:26:23.841Z,5.00
2023-01-27T14:29:01.955Z,5.00
2023-01-27T14:31:39.106Z,4.50
2023-01-27T14:34:11.238Z,4.00
2023-01-27T14:36:44.095Z,4.75
2023-01-27T14:39:17.959Z,4.75
2023-01-27T14:41:47.698Z,5.00
2023-01-27T14:44:19.135Z,4.00
2023-01-27T14:46:56.334Z,5.00
2023-01-27T14:49:30.746Z,4.50
2023-01-27T14:52:03.393Z,5.00
2023-01-27T14:54:42.758Z,6.00
2023-01-27T14:57:20.781Z,4.25
2023-01-27T14:59:53.117Z,5.00
2023-01-27T15:02:32.089Z,5.00
2023-01-27T15:05:01.948Z,4.50
2023-01-27T15:07:35.065Z,5.25
2023-01-27T15:10:18.687Z,4.75
2023-01-27T15:13:13.389Z,4.75
2023-01-27T15:15:55.040Z,5.00
2023-01-27T15:18:29.955Z,4.25
2023-01-27T15:21:09.432Z,5.00
2023-01-27T15:23:55.458Z,4.75
2023-01-27T15:26:24.178Z,5.00
2023-01-27T15:28:52.100Z,4.00
2023-01-27T15:31:25.104Z,4.50
2023-01-27T15:33:55.316Z,4.50
2023-01-27T15:36:58.940Z,5.00
2023-01-27T15:39:40.440Z,4.00
2023-01-27T15:42:12.228Z,4.50
2023-01-27T15:44:41.824Z,4.00
2023-01-27T15:47:11.781Z,5.25
2023-01-27T15:49:42.416Z,5.00
2023-01-27T15:52:11.916Z,4.00
2023-01-27T15:54:42.593Z,6.00
2023-01-27T15:57:24.292Z,6.00
2023-01-27T15:59:59.088Z,6.00
2023-01-27T16:02:28.773Z,7.00
2023-01-27T16:04:57.912Z,8.00
2023-01-27T16:07:28.306Z,8.25
2023-01-27T16:09:57.629Z,8.00
2023-01-27T16:12:45.021Z,9.00
2023-01-27T16:15:24.221Z,10.00
2023-01-27T16:18:16.601Z,11.00
2023-01-27T16:20:45.081Z,11.00
2023-01-27T16:23:14.613Z,11.00
2023-01-27T16:25:45.331Z,12.50
2023-01-27T16:28:15.529Z,11.00
2023-01-27T16:30:48.268Z,11.25
2023-01-27T16:33:21.603Z,11.00
2023-01-27T16:35:50.811Z,13.25
2023-01-27T16:38:23.428Z,15.00
2023-01-27T16:40:54.025Z,15.50
2023-01-27T16:43:25.032Z,16.75
2023-01-27T16:45:53.867Z,18.50
2023-01-27T16:48:30.911Z,22.00
2023-01-27T16:51:08.778Z,24.25
2023-01-27T16:53:36.699Z,23.25
2023-01-27T16:56:07.067Z,22.25
2023-01-27T16:58:46.142Z,23.25
2023-01-27T17:01:21.777Z,22.25
2023-01-27T17:03:49.720Z,22.75
2023-01-27T17:06:17.898Z,24.25
2023-01-27T17:08:46.346Z,20.75
2023-01-27T17:11:23.236Z,23.50
2023-01-27T17:13:54.605Z,25.50
2023-01-27T17:16:25.342Z,24.75
2023-01-27T17:18:53.738Z,23.25
2023-01-27T17:21:32.874Z,23.75
2023-01-27T17:24:03.178Z,23.00
2023-01-27T17:26:32.509Z,22.50
2023-01-27T17:29:00.443Z,23.50
2023-01-27T17:31:28.440Z,23.75
2023-01-27T17:34:00.764Z,23.25
2023-01-27T17:36:29.201Z,21.25
2023-01-27T17:38:58.459Z,21.00
2023-01-27T17:41:33.939Z,20.50
2023-01-27T17:44:02.333Z,20.25
2023-01-27T17:46:32.121Z,21.25
2023-01-27T17:49:01.741Z,20.25
2023-01-27T17:51:30.631Z,20.75
2023-01-27T17:53:58.762Z,20.75
2023-01-27T17:56:29.246Z,18.00
2023-01-27T17:58:59.470Z,19.50
2023-01-27T18:01:27.425Z,18.00
2023-01-27T18:03:56.379Z,19.25
2023-01-27T18:06:25.427Z,19.75
2023-01-27T18:08:54.669Z,20.50
2023-01-27T18:11:25.260Z,21.00
2023-01-27T18:13:53.537Z,21.50
2023-01-27T18:16:23.658Z,23.75
2023-01-27T18:18:51.711Z,25.50
2023-01-27T18:21:22.676Z,25.00
2023-01-27T18:23:51.324Z,24.75
2023-01-27T18:26:22.136Z,25.50
2023-01-27T18:28:51.375Z,25.75
2023-01-27T18:31:23.545Z,23.50
2023-01-27T18:33:59.180Z,25.25
2023-01-27T18:36:33.207Z,25.50
2023-01-27T18:39:01.160Z,26.00
2023-01-27T18:41:31.787Z,27.00
2023-01-27T18:44:00.117Z,25.75
2023-01-27T18:46:29.425Z,25.25
2023-01-27T18:48:59.607Z,25.25
2023-01-27T18:51:27.638Z,25.25
2023-01-27T18:53:55.828Z,25.25
2023-01-27T18:56:23.716Z,24.50
2023-01-27T18:58:54.144Z,23.75
2023-01-27T19:01:23.124Z,24.50
2023-01-27T19:03:55.477Z,24.75
2023-01-27T19:06:23.365Z,25.75
2023-01-27T19:08:52.127Z,25.00
2023-01-27T19:11:20.088Z,28.25
2023-01-27T19:13:48.637Z,28.00
2023-01-27T19:16:17.679Z,31.25
2023-01-27T19:18:45.623Z,31.50
2023-01-27T19:21:15.788Z,32.00
2023-01-27T19:23:44.776Z,32.00
2023-01-27T19:26:17.251Z,32.50
2023-01-27T19:28:45.448Z,31.00
2023-01-27T19:31:13.460Z,31.25
2023-01-27T19:33:43.995Z,32.50
2023-01-27T19:36:24.897Z,32.25
2023-01-27T19:38:54.598Z,31.75
2023-01-27T19:41:22.503Z,30.75
2023-01-27T19:43:50.758Z,32.25
2023-01-27T19:46:21.557Z,33.25
2023-01-27T19:48:50.228Z,31.25
2023-01-27T19:51:18.847Z,30.50
2023-01-27T19:53:48.279Z,30.75
2023-01-27T19:56:17.543Z,30.00
2023-01-27T19:58:47.102Z,28.50
2023-01-27T20:01:15.124Z,29.00
2023-01-27T20:03:43.254Z,29.50
2023-01-27T20:06:16.368Z,28.00
2023-01-27T20:08:44.264Z,25.50
2023-01-27T20:11:31.931Z,27.00
2023-01-27T20:13:59.896Z,26.25
2023-01-27T20:16:28.059Z,26.25
2023-01-27T20:18:56.979Z,26.00
2023-01-27T20:21:25.987Z,24.50
2023-01-27T20:23:54.202Z,22.50
2023-01-27T20:26:23.983Z,26.25
2023-01-27T20:28:51.851Z,27.75
2023-01-27T20:31:22.487Z,25.25
2023-01-27T20:33:50.929Z,27.75
2023-01-27T20:36:20.352Z,26.50
2023-01-27T20:38:48.318Z,27.25
2023-01-27T20:41:17.464Z,25.25
2023-01-27T20:43:46.723Z,30.00
2023-01-27T20:46:16.030Z,27.25
2023-01-27T20:48:44.396Z,27.00
2023-01-27T20:51:13.928Z,27.50
2023-01-27T20:53:45.297Z,27.50
2023-01-27T20:56:14.215Z,26.25
2023-01-27T20:58:42.120Z,27.00
2023-01-27T21:01:12.107Z,28.00
2023-01-27T21:03:40.259Z,27.25
2023-01-27T21:06:08.747Z,26.00
2023-01-27T21:08:36.613Z,26.00
2023-01-27T21:11:05.081Z,26.75
2023-01-27T21:13:33.054Z,27.00
2023-01-27T21:16:02.104Z,26.00
2023-01-27T21:18:31.399Z,24.75
2023-01-27T21:21:02.562Z,23.50
2023-01-27T21:23:31.449Z,23.75
2023-01-27T21:26:03.915Z,22.75
2023-01-27T21:28:33.357Z,26.00
2023-01-27T21:31:06.393Z,22.25
2023-01-27T21:33:37.008Z,25.25
2023-01-27T21:36:05.188Z,20.75
2023-01-27T21:38:33.160Z,23.25
2023-01-27T21:41:05.499Z,20.75
2023-01-27T21:43:50.972Z,20.50
2023-01-27T21:46:19.258Z,18.00
2023-01-27T21:48:48.665Z,20.00
2023-01-27T21:51:16.595Z,19.00
2023-01-27T21:53:44.485Z,21.25
2023-01-27T21:56:12.362Z,19.50
2023-01-27T21:58:40.274Z,18.00
2023-01-27T22:01:08.620Z,19.00
2023-01-27T22:03:36.542Z,20.00
2023-01-27T22:06:09.470Z,18.50
2023-01-27T22:08:37.427Z,16.50
2023-01-27T22:11:05.406Z,16.50
2023-01-27T22:13:33.355Z,17.50
2023-01-27T22:16:01.325Z,16.25
2023-01-27T22:18:29.262Z,15.75
2023-01-27T22:20:57.153Z,15.75
2023-01-27T22:23:26.451Z,16.00
2023-01-27T22:25:54.492Z,16.75
2023-01-27T22:28:23.083Z,15.25
2023-01-27T22:30:51.175Z,16.00
2023-01-27T22:33:19.158Z,16.00
2023-01-27T22:35:47.039Z,19.50
2023-01-27T22:38:15.274Z,16.50
2023-01-27T22:40:44.536Z,17.75
2023-01-27T22:43:12.461Z,17.75
2023-01-27T22:45:40.607Z,17.25
2023-01-27T22:48:09.802Z,19.00
2023-01-27T22:50:40.432Z,20.00
2023-01-27T22:53:08.426Z,20.25
2023-01-27T22:55:36.631Z,20.50
2023-01-27T22:58:05.905Z,19.00
2023-01-27T23:00:35.142Z,19.50
2023-01-27T23:03:03.067Z,20.75
2023-01-27T23:05:31.290Z,21.25
2023-01-27T23:07:59.207Z,20.25
2023-01-27T23:10:27.148Z,20.50
2023-01-27T23:12:55.058Z,19.25
2023-01-27T23:15:24.589Z,18.25
2023-01-27T23:17:52.488Z,18.25
2023-01-27T23:20:20.629Z,21.25
2023-01-27T23:22:48.501Z,19.00
2023-01-27T23:25:17.154Z,18.50
2023-01-27T23:27:45.299Z,19.00
2023-01-27T23:30:13.883Z,18.75
2023-01-27T23:32:43.197Z,17.50
2023-01-27T23:35:11.453Z,18.75
2023-01-27T23:37:39.326Z,17.00
2023-01-27T23:40:08.576Z,18.75
2023-01-27T23:42:36.485Z,16.00
2023-01-27T23:45:04.974Z,18.25
2023-01-27T23:47:32.817Z,16.00
2023-01-27T23:50:02.148Z,18.25
2023-01-27T23:52:31.678Z,15.25
2023-01-27T23:54:59.844Z,17.25
2023-01-27T23:57:27.725Z,18.00
2023-01-27T23:59:55.579Z,18.75
